sensor_id;sensor_type;location;lat;lon;timestamp;temperature;humidity
4324;DHT22;2175;51.018;6.994;2024-03-29T00:00:03;8.60;1.00
4324;DHT22;2175;51.018;6.994;2024-03-29T00:02:29;8.60;1.00
4324;DHT22;2175;51.018;6.994;2024-03-29T00:04:55;8.60;1.00
4324;DHT22;2175;51.018;6.994;2024-03-29T00:07:20;8.40;1.00
4324;DHT22;2175;51.018;6.994;2024-03-29T00:09:46;8.30;1.00
4324;DHT22;2175;51.018;6.994;2024-03-29T00:12:12;8.30;1.00
4324;DHT22;2175;51.018;6.994;2024-03-29T00:14:37;8.30;1.00
4324;DHT22;2175;51.018;6.994;2024-03-29T00:17:05;8.20;1.00
4324;DHT22;2175;51.018;6.994;2024-03-29T00:19:30;8.10;1.00
4324;DHT22;2175;51.018;6.994;2024-03-29T00:21:56;8.00;1.00
4324;DHT22;2175;51.018;6.994;2024-03-29T00:24:21;8.10;1.00
4324;DHT22;2175;51.018;6.994;2024-03-29T00:26:47;8.00;1.00
4324;DHT22;2175;51.018;6.994;2024-03-29T00:29:12;7.90;1.00
4324;DHT22;2175;51.018;6.994;2024-03-29T00:31:38;7.70;1.00
4324;DHT22;2175;51.018;6.994;2024-03-29T00:34:03;7.70;1.00
4324;DHT22;2175;51.018;6.994;2024-03-29T00:36:29;7.80;1.00
4324;DHT22;2175;51.018;6.994;2024-03-29T00:38:55;7.70;1.00
4324;DHT22;2175;51.018;6.994;2024-03-29T00:41:20;7.70;15.80
4324;DHT22;2175;51.018;6.994;2024-03-29T00:43:46;7.50;92.60
4324;DHT22;2175;51.018;6.994;2024-03-29T00:46:11;7.40;99.90
4324;DHT22;2175;51.018;6.994;2024-03-29T00:48:37;7.50;1.00
4324;DHT22;2175;51.018;6.994;2024-03-29T00:51:03;7.50;1.00
4324;DHT22;2175;51.018;6.994;2024-03-29T00:53:28;7.40;1.00
4324;DHT22;2175;51.018;6.994;2024-03-29T00:55:54;7.30;99.90
4324;DHT22;2175;51.018;6.994;2024-03-29T00:58:19;7.30;1.00
4324;DHT22;2175;51.018;6.994;2024-03-29T01:00:45;7.30;99.90
4324;DHT22;2175;51.018;6.994;2024-03-29T01:03:12;7.30;1.00
4324;DHT22;2175;51.018;6.994;2024-03-29T01:05:38;7.50;99.90
4324;DHT22;2175;51.018;6.994;2024-03-29T01:08:04;7.60;99.90
4324;DHT22;2175;51.018;6.994;2024-03-29T01:10:30;7.60;1.00
4324;DHT22;2175;51.018;6.994;2024-03-29T01:12:56;7.60;99.90
4324;DHT22;2175;51.018;6.994;2024-03-29T01:15:22;7.60;99.90
4324;DHT22;2175;51.018;6.994;2024-03-29T01:17:47;7.70;64.10
4324;DHT22;2175;51.018;6.994;2024-03-29T01:20:13;7.70;18.00
4324;DHT22;2175;51.018;6.994;2024-03-29T01:22:38;8.00;1.00
4324;DHT22;2175;51.018;6.994;2024-03-29T01:25:04;8.00;1.00
4324;DHT22;2175;51.018;6.994;2024-03-29T01:27:33;8.00;1.00
4324;DHT22;2175;51.018;6.994;2024-03-29T01:29:59;8.10;1.00
4324;DHT22;2175;51.018;6.994;2024-03-29T01:32:24;8.20;1.00
4324;DHT22;2175;51.018;6.994;2024-03-29T01:34:50;8.20;1.00
4324;DHT22;2175;51.018;6.994;2024-03-29T01:37:16;8.30;1.00
4324;DHT22;2175;51.018;6.994;2024-03-29T01:39:41;8.50;1.00
4324;DHT22;2175;51.018;6.994;2024-03-29T01:42:07;8.60;1.00
4324;DHT22;2175;51.018;6.994;2024-03-29T01:44:33;8.50;1.00
4324;DHT22;2175;51.018;6.994;2024-03-29T01:46:58;8.60;1.00
4324;DHT22;2175;51.018;6.994;2024-03-29T01:49:24;8.50;1.00
4324;DHT22;2175;51.018;6.994;2024-03-29T01:51:51;8.60;1.00
4324;DHT22;2175;51.018;6.994;2024-03-29T01:54:17;8.60;1.00
4324;DHT22;2175;51.018;6.994;2024-03-29T01:56:43;8.60;1.00
4324;DHT22;2175;51.018;6.994;2024-03-29T01:59:16;8.60;1.00
4324;DHT22;2175;51.018;6.994;2024-03-29T02:01:45;8.50;1.00
4324;DHT22;2175;51.018;6.994;2024-03-29T02:04:11;8.50;1.00
4324;DHT22;2175;51.018;6.994;2024-03-29T02:06:38;8.60;1.00
4324;DHT22;2175;51.018;6.994;2024-03-29T02:09:04;8.70;1.00
4324;DHT22;2175;51.018;6.994;2024-03-29T02:11:29;8.70;1.00
4324;DHT22;2175;51.018;6.994;2024-03-29T02:13:56;8.80;1.00
4324;DHT22;2175;51.018;6.994;2024-03-29T02:16:22;8.80;1.00
4324;DHT22;2175;51.018;6.994;2024-03-29T02:18:47;8.90;1.00
4324;DHT22;2175;51.018;6.994;2024-03-29T02:21:13;9.00;1.00
4324;DHT22;2175;51.018;6.994;2024-03-29T02:23:43;9.00;1.00
4324;DHT22;2175;51.018;6.994;2024-03-29T02:26:10;9.00;1.00
4324;DHT22;2175;51.018;6.994;2024-03-29T02:28:36;9.00;1.00
4324;DHT22;2175;51.018;6.994;2024-03-29T02:31:02;9.00;1.00
4324;DHT22;2175;51.018;6.994;2024-03-29T02:33:28;9.00;1.00
4324;DHT22;2175;51.018;6.994;2024-03-29T02:35:53;9.00;1.00
4324;DHT22;2175;51.018;6.994;2024-03-29T02:38:19;8.90;1.00
4324;DHT22;2175;51.018;6.994;2024-03-29T02:40:45;9.00;1.00
4324;DHT22;2175;51.018;6.994;2024-03-29T02:43:11;9.00;1.00
4324;DHT22;2175;51.018;6.994;2024-03-29T02:45:36;9.00;1.00
4324;DHT22;2175;51.018;6.994;2024-03-29T02:48:02;8.90;1.00
4324;DHT22;2175;51.018;6.994;2024-03-29T02:50:28;9.00;1.00
4324;DHT22;2175;51.018;6.994;2024-03-29T02:52:53;9.10;1.00
4324;DHT22;2175;51.018;6.994;2024-03-29T02:55:19;9.20;1.00
4324;DHT22;2175;51.018;6.994;2024-03-29T02:57:44;9.20;1.00
4324;DHT22;2175;51.018;6.994;2024-03-29T03:00:10;9.20;1.00
4324;DHT22;2175;51.018;6.994;2024-03-29T03:02:39;9.20;1.00
4324;DHT22;2175;51.018;6.994;2024-03-29T03:05:06;9.30;1.00
4324;DHT22;2175;51.018;6.994;2024-03-29T03:07:32;9.30;1.00
4324;DHT22;2175;51.018;6.994;2024-03-29T03:10:16;9.20;1.00
4324;DHT22;2175;51.018;6.994;2024-03-29T03:13:01;9.30;1.00
4324;DHT22;2175;51.018;6.994;2024-03-29T03:15:27;9.20;1.00
4324;DHT22;2175;51.018;6.994;2024-03-29T03:17:52;9.30;1.00
4324;DHT22;2175;51.018;6.994;2024-03-29T03:20:18;9.30;1.00
4324;DHT22;2175;51.018;6.994;2024-03-29T03:22:44;9.30;1.00
4324;DHT22;2175;51.018;6.994;2024-03-29T03:25:10;9.30;1.00
4324;DHT22;2175;51.018;6.994;2024-03-29T03:27:36;9.20;1.00
4324;DHT22;2175;51.018;6.994;2024-03-29T03:30:01;9.30;1.00
4324;DHT22;2175;51.018;6.994;2024-03-29T03:32:27;9.30;1.00
4324;DHT22;2175;51.018;6.994;2024-03-29T03:34:53;9.20;1.00
4324;DHT22;2175;51.018;6.994;2024-03-29T03:37:18;9.10;1.00
4324;DHT22;2175;51.018;6.994;2024-03-29T03:39:44;9.10;1.00
4324;DHT22;2175;51.018;6.994;2024-03-29T03:42:09;9.10;1.00
4324;DHT22;2175;51.018;6.994;2024-03-29T03:44:35;9.20;1.00
4324;DHT22;2175;51.018;6.994;2024-03-29T03:47:01;9.20;1.00
4324;DHT22;2175;51.018;6.994;2024-03-29T03:49:26;9.20;1.00
4324;DHT22;2175;51.018;6.994;2024-03-29T03:51:52;9.20;1.00
4324;DHT22;2175;51.018;6.994;2024-03-29T03:54:18;9.20;1.00
4324;DHT22;2175;51.018;6.994;2024-03-29T03:56:43;9.20;1.00
4324;DHT22;2175;51.018;6.994;2024-03-29T03:59:09;9.20;1.00
4324;DHT22;2175;51.018;6.994;2024-03-29T04:01:35;9.20;1.00
4324;DHT22;2175;51.018;6.994;2024-03-29T04:04:01;9.30;1.00
4324;DHT22;2175;51.018;6.994;2024-03-29T04:06:26;9.20;1.00
4324;DHT22;2175;51.018;6.994;2024-03-29T04:08:52;9.20;1.00
4324;DHT22;2175;51.018;6.994;2024-03-29T04:11:17;9.20;1.00
4324;DHT22;2175;51.018;6.994;2024-03-29T04:13:45;9.20;1.00
4324;DHT22;2175;51.018;6.994;2024-03-29T04:16:11;9.20;1.00
4324;DHT22;2175;51.018;6.994;2024-03-29T04:18:37;9.20;1.00
4324;DHT22;2175;51.018;6.994;2024-03-29T04:21:03;9.30;1.00
4324;DHT22;2175;51.018;6.994;2024-03-29T04:23:29;9.20;1.00
4324;DHT22;2175;51.018;6.994;2024-03-29T04:25:56;9.20;1.00
4324;DHT22;2175;51.018;6.994;2024-03-29T04:28:22;9.20;1.00
4324;DHT22;2175;51.018;6.994;2024-03-29T04:33:21;9.10;1.00
4324;DHT22;2175;51.018;6.994;2024-03-29T04:36:01;9.10;1.00
4324;DHT22;2175;51.018;6.994;2024-03-29T04:38:27;9.00;1.00
4324;DHT22;2175;51.018;6.994;2024-03-29T04:40:54;9.00;1.00
4324;DHT22;2175;51.018;6.994;2024-03-29T04:43:25;8.90;1.00
4324;DHT22;2175;51.018;6.994;2024-03-29T04:46:01;8.90;1.00
4324;DHT22;2175;51.018;6.994;2024-03-29T04:48:27;8.80;9.10
4324;DHT22;2175;51.018;6.994;2024-03-29T04:50:52;8.80;99.90
4324;DHT22;2175;51.018;6.994;2024-03-29T04:53:18;8.70;99.90
4324;DHT22;2175;51.018;6.994;2024-03-29T04:55:43;8.70;14.90
4324;DHT22;2175;51.018;6.994;2024-03-29T04:58:11;8.60;99.90
4324;DHT22;2175;51.018;6.994;2024-03-29T05:00:36;8.50;99.90
4324;DHT22;2175;51.018;6.994;2024-03-29T05:03:02;8.40;1.00
4324;DHT22;2175;51.018;6.994;2024-03-29T05:05:27;8.40;99.90
4324;DHT22;2175;51.018;6.994;2024-03-29T05:07:53;8.40;99.90
4324;DHT22;2175;51.018;6.994;2024-03-29T05:10:19;8.30;1.00
4324;DHT22;2175;51.018;6.994;2024-03-29T05:12:48;8.30;99.90
4324;DHT22;2175;51.018;6.994;2024-03-29T05:15:14;8.10;37.70
4324;DHT22;2175;51.018;6.994;2024-03-29T05:17:40;8.10;1.00
4324;DHT22;2175;51.018;6.994;2024-03-29T05:20:07;8.20;1.00
4324;DHT22;2175;51.018;6.994;2024-03-29T05:22:34;8.00;99.90
4324;DHT22;2175;51.018;6.994;2024-03-29T05:24:59;8.10;99.90
4324;DHT22;2175;51.018;6.994;2024-03-29T05:27:25;8.00;99.90
4324;DHT22;2175;51.018;6.994;2024-03-29T05:29:50;8.10;1.00
4324;DHT22;2175;51.018;6.994;2024-03-29T05:32:16;8.00;1.00
4324;DHT22;2175;51.018;6.994;2024-03-29T05:34:41;8.00;1.00
4324;DHT22;2175;51.018;6.994;2024-03-29T05:37:07;8.00;1.00
4324;DHT22;2175;51.018;6.994;2024-03-29T05:39:33;8.00;4.10
4324;DHT22;2175;51.018;6.994;2024-03-29T05:41:59;7.90;93.00
4324;DHT22;2175;51.018;6.994;2024-03-29T05:44:24;8.00;1.00
4324;DHT22;2175;51.018;6.994;2024-03-29T05:46:50;8.00;99.90
4324;DHT22;2175;51.018;6.994;2024-03-29T05:49:15;8.00;99.90
4324;DHT22;2175;51.018;6.994;2024-03-29T05:51:42;8.00;98.80
4324;DHT22;2175;51.018;6.994;2024-03-29T05:54:07;8.00;33.40
4324;DHT22;2175;51.018;6.994;2024-03-29T05:56:33;8.10;15.10
4324;DHT22;2175;51.018;6.994;2024-03-29T05:58:59;8.10;97.80
4324;DHT22;2175;51.018;6.994;2024-03-29T06:01:24;8.10;99.90
4324;DHT22;2175;51.018;6.994;2024-03-29T06:03:50;8.00;99.90
4324;DHT22;2175;51.018;6.994;2024-03-29T06:06:20;8.10;1.00
4324;DHT22;2175;51.018;6.994;2024-03-29T06:08:49;8.10;99.90
4324;DHT22;2175;51.018;6.994;2024-03-29T06:11:15;8.20;99.90
4324;DHT22;2175;51.018;6.994;2024-03-29T06:13:40;8.20;89.80
4324;DHT22;2175;51.018;6.994;2024-03-29T06:16:19;8.30;99.90
4324;DHT22;2175;51.018;6.994;2024-03-29T06:19:03;8.30;1.00
4324;DHT22;2175;51.018;6.994;2024-03-29T06:21:29;8.30;1.90
4324;DHT22;2175;51.018;6.994;2024-03-29T06:23:54;8.40;1.00
4324;DHT22;2175;51.018;6.994;2024-03-29T06:26:20;8.40;58.00
4324;DHT22;2175;51.018;6.994;2024-03-29T06:28:46;8.50;25.00
4324;DHT22;2175;51.018;6.994;2024-03-29T06:31:11;8.40;99.90
4324;DHT22;2175;51.018;6.994;2024-03-29T06:33:37;8.40;99.90
4324;DHT22;2175;51.018;6.994;2024-03-29T06:36:03;8.50;92.00
4324;DHT22;2175;51.018;6.994;2024-03-29T06:38:29;8.60;99.90
4324;DHT22;2175;51.018;6.994;2024-03-29T06:40:54;8.60;99.90
4324;DHT22;2175;51.018;6.994;2024-03-29T06:43:20;8.70;99.90
4324;DHT22;2175;51.018;6.994;2024-03-29T06:45:45;8.70;64.90
4324;DHT22;2175;51.018;6.994;2024-03-29T06:48:11;8.80;27.30
4324;DHT22;2175;51.018;6.994;2024-03-29T06:50:40;8.90;30.80
4324;DHT22;2175;51.018;6.994;2024-03-29T06:53:06;8.90;21.80
4324;DHT22;2175;51.018;6.994;2024-03-29T06:55:34;9.00;99.90
4324;DHT22;2175;51.018;6.994;2024-03-29T06:58:02;9.00;62.20
4324;DHT22;2175;51.018;6.994;2024-03-29T07:00:28;9.10;31.10
4324;DHT22;2175;51.018;6.994;2024-03-29T07:02:53;9.20;69.20
4324;DHT22;2175;51.018;6.994;2024-03-29T07:05:19;9.30;1.00
4324;DHT22;2175;51.018;6.994;2024-03-29T07:07:45;9.40;53.50
4324;DHT22;2175;51.018;6.994;2024-03-29T07:10:12;9.40;1.00
4324;DHT22;2175;51.018;6.994;2024-03-29T07:12:38;9.50;1.00
4324;DHT22;2175;51.018;6.994;2024-03-29T07:15:04;9.50;1.00
4324;DHT22;2175;51.018;6.994;2024-03-29T07:17:30;9.50;20.40
4324;DHT22;2175;51.018;6.994;2024-03-29T07:19:55;9.60;1.00
4324;DHT22;2175;51.018;6.994;2024-03-29T07:22:21;9.60;1.00
4324;DHT22;2175;51.018;6.994;2024-03-29T07:24:47;9.70;1.00
4324;DHT22;2175;51.018;6.994;2024-03-29T07:27:12;9.90;1.00
4324;DHT22;2175;51.018;6.994;2024-03-29T07:29:40;10.00;99.90
4324;DHT22;2175;51.018;6.994;2024-03-29T07:32:07;10.10;99.90
4324;DHT22;2175;51.018;6.994;2024-03-29T07:34:33;10.20;99.90
4324;DHT22;2175;51.018;6.994;2024-03-29T07:36:59;10.30;99.90
4324;DHT22;2175;51.018;6.994;2024-03-29T07:39:24;10.30;1.00
4324;DHT22;2175;51.018;6.994;2024-03-29T07:41:50;10.40;1.00
4324;DHT22;2175;51.018;6.994;2024-03-29T07:44:15;10.40;1.00
4324;DHT22;2175;51.018;6.994;2024-03-29T07:46:41;10.50;99.90
4324;DHT22;2175;51.018;6.994;2024-03-29T07:49:06;10.60;1.00
4324;DHT22;2175;51.018;6.994;2024-03-29T07:51:33;10.60;1.00
4324;DHT22;2175;51.018;6.994;2024-03-29T07:54:00;10.60;1.00
4324;DHT22;2175;51.018;6.994;2024-03-29T07:56:26;10.60;1.00
4324;DHT22;2175;51.018;6.994;2024-03-29T07:58:53;10.70;1.00
4324;DHT22;2175;51.018;6.994;2024-03-29T08:01:23;10.80;1.00
4324;DHT22;2175;51.018;6.994;2024-03-29T08:03:52;10.80;99.90
4324;DHT22;2175;51.018;6.994;2024-03-29T08:06:21;10.90;99.90
4324;DHT22;2175;51.018;6.994;2024-03-29T08:08:49;11.00;1.00
4324;DHT22;2175;51.018;6.994;2024-03-29T08:11:14;11.00;1.00
4324;DHT22;2175;51.018;6.994;2024-03-29T08:13:40;10.90;99.80
4324;DHT22;2175;51.018;6.994;2024-03-29T08:16:06;11.00;1.00
4324;DHT22;2175;51.018;6.994;2024-03-29T08:18:32;10.90;1.00
4324;DHT22;2175;51.018;6.994;2024-03-29T08:20:59;10.90;99.90
4324;DHT22;2175;51.018;6.994;2024-03-29T08:23:28;10.90;99.90
4324;DHT22;2175;51.018;6.994;2024-03-29T08:25:54;11.00;99.90
4324;DHT22;2175;51.018;6.994;2024-03-29T08:28:24;11.00;1.00
4324;DHT22;2175;51.018;6.994;2024-03-29T08:31:00;11.00;1.00
4324;DHT22;2175;51.018;6.994;2024-03-29T08:33:26;11.00;99.90
4324;DHT22;2175;51.018;6.994;2024-03-29T08:35:52;11.00;1.00
4324;DHT22;2175;51.018;6.994;2024-03-29T08:38:18;11.10;65.10
4324;DHT22;2175;51.018;6.994;2024-03-29T08:40:44;11.20;99.90
4324;DHT22;2175;51.018;6.994;2024-03-29T08:43:12;11.20;99.90
4324;DHT22;2175;51.018;6.994;2024-03-29T08:45:37;11.30;7.50
4324;DHT22;2175;51.018;6.994;2024-03-29T08:48:09;11.40;99.90
4324;DHT22;2175;51.018;6.994;2024-03-29T08:50:35;11.60;1.00
4324;DHT22;2175;51.018;6.994;2024-03-29T08:53:02;11.90;1.00
4324;DHT22;2175;51.018;6.994;2024-03-29T08:55:29;11.90;65.70
4324;DHT22;2175;51.018;6.994;2024-03-29T08:57:54;11.90;99.90
4324;DHT22;2175;51.018;6.994;2024-03-29T09:00:20;11.90;99.90
4324;DHT22;2175;51.018;6.994;2024-03-29T09:02:46;12.10;79.80
4324;DHT22;2175;51.018;6.994;2024-03-29T09:05:12;12.30;59.90
4324;DHT22;2175;51.018;6.994;2024-03-29T09:07:37;12.50;1.00
4324;DHT22;2175;51.018;6.994;2024-03-29T09:10:04;12.60;1.00
4324;DHT22;2175;51.018;6.994;2024-03-29T09:12:30;12.60;1.00
4324;DHT22;2175;51.018;6.994;2024-03-29T09:14:55;12.60;1.00
4324;DHT22;2175;51.018;6.994;2024-03-29T09:17:21;12.70;99.90
4324;DHT22;2175;51.018;6.994;2024-03-29T09:19:51;12.80;99.90
4324;DHT22;2175;51.018;6.994;2024-03-29T09:22:17;12.80;54.90
4324;DHT22;2175;51.018;6.994;2024-03-29T09:24:43;12.90;71.30
4324;DHT22;2175;51.018;6.994;2024-03-29T09:27:09;13.00;94.20
4324;DHT22;2175;51.018;6.994;2024-03-29T09:29:35;13.10;16.10
4324;DHT22;2175;51.018;6.994;2024-03-29T09:32:00;13.00;7.50
4324;DHT22;2175;51.018;6.994;2024-03-29T09:34:29;13.20;99.90
4324;DHT22;2175;51.018;6.994;2024-03-29T09:36:56;13.30;1.00
4324;DHT22;2175;51.018;6.994;2024-03-29T09:39:23;13.40;1.00
4324;DHT22;2175;51.018;6.994;2024-03-29T09:41:49;13.50;1.00
4324;DHT22;2175;51.018;6.994;2024-03-29T09:44:16;13.50;1.00
4324;DHT22;2175;51.018;6.994;2024-03-29T09:46:43;13.40;1.00
4324;DHT22;2175;51.018;6.994;2024-03-29T09:49:09;13.40;1.00
4324;DHT22;2175;51.018;6.994;2024-03-29T09:51:37;13.50;1.00
4324;DHT22;2175;51.018;6.994;2024-03-29T09:54:05;13.50;1.00
4324;DHT22;2175;51.018;6.994;2024-03-29T09:56:33;13.80;1.00
4324;DHT22;2175;51.018;6.994;2024-03-29T09:59:00;13.90;1.00
4324;DHT22;2175;51.018;6.994;2024-03-29T10:01:27;14.00;1.00
4324;DHT22;2175;51.018;6.994;2024-03-29T10:03:53;14.10;1.00
4324;DHT22;2175;51.018;6.994;2024-03-29T10:06:19;14.20;1.00
4324;DHT22;2175;51.018;6.994;2024-03-29T10:08:47;14.30;1.00
4324;DHT22;2175;51.018;6.994;2024-03-29T10:11:14;14.20;1.00
4324;DHT22;2175;51.018;6.994;2024-03-29T10:13:44;14.20;1.00
4324;DHT22;2175;51.018;6.994;2024-03-29T10:16:12;14.10;1.00
4324;DHT22;2175;51.018;6.994;2024-03-29T10:18:41;14.10;1.00
4324;DHT22;2175;51.018;6.994;2024-03-29T10:21:09;14.20;1.00
4324;DHT22;2175;51.018;6.994;2024-03-29T10:23:35;14.30;1.00
4324;DHT22;2175;51.018;6.994;2024-03-29T10:26:02;14.30;1.00
4324;DHT22;2175;51.018;6.994;2024-03-29T10:28:32;14.20;1.00
4324;DHT22;2175;51.018;6.994;2024-03-29T10:31:04;14.30;1.00
4324;DHT22;2175;51.018;6.994;2024-03-29T10:33:31;14.30;1.00
4324;DHT22;2175;51.018;6.994;2024-03-29T10:35:58;14.30;1.00
4324;DHT22;2175;51.018;6.994;2024-03-29T10:38:25;14.40;1.00
4324;DHT22;2175;51.018;6.994;2024-03-29T10:40:52;14.50;1.00
4324;DHT22;2175;51.018;6.994;2024-03-29T10:43:19;14.50;1.00
4324;DHT22;2175;51.018;6.994;2024-03-29T10:45:48;14.60;1.00
4324;DHT22;2175;51.018;6.994;2024-03-29T10:48:16;14.50;1.00
4324;DHT22;2175;51.018;6.994;2024-03-29T10:50:43;14.50;1.00
4324;DHT22;2175;51.018;6.994;2024-03-29T10:53:09;14.60;1.00
4324;DHT22;2175;51.018;6.994;2024-03-29T10:55:37;14.70;1.00
4324;DHT22;2175;51.018;6.994;2024-03-29T10:58:04;14.70;1.00
4324;DHT22;2175;51.018;6.994;2024-03-29T11:00:34;14.80;1.00
4324;DHT22;2175;51.018;6.994;2024-03-29T11:03:13;15.00;1.00
4324;DHT22;2175;51.018;6.994;2024-03-29T11:05:47;15.20;1.00
4324;DHT22;2175;51.018;6.994;2024-03-29T11:08:20;15.20;1.00
4324;DHT22;2175;51.018;6.994;2024-03-29T11:10:49;15.10;1.00
4324;DHT22;2175;51.018;6.994;2024-03-29T11:13:35;15.00;1.00
4324;DHT22;2175;51.018;6.994;2024-03-29T11:16:03;15.00;1.00
4324;DHT22;2175;51.018;6.994;2024-03-29T11:18:29;14.90;1.00
4324;DHT22;2175;51.018;6.994;2024-03-29T11:20:57;15.10;1.00
4324;DHT22;2175;51.018;6.994;2024-03-29T11:23:25;15.10;1.00
4324;DHT22;2175;51.018;6.994;2024-03-29T11:25:53;15.20;1.00
4324;DHT22;2175;51.018;6.994;2024-03-29T11:28:34;15.30;1.00
4324;DHT22;2175;51.018;6.994;2024-03-29T11:31:07;15.20;1.00
4324;DHT22;2175;51.018;6.994;2024-03-29T11:38:49;15.10;1.00
4324;DHT22;2175;51.018;6.994;2024-03-29T11:41:22;15.10;1.00
4324;DHT22;2175;51.018;6.994;2024-03-29T11:43:49;15.10;1.00
4324;DHT22;2175;51.018;6.994;2024-03-29T11:46:15;15.10;1.00
4324;DHT22;2175;51.018;6.994;2024-03-29T11:48:44;14.90;1.00
4324;DHT22;2175;51.018;6.994;2024-03-29T11:51:13;14.80;1.00
4324;DHT22;2175;51.018;6.994;2024-03-29T11:53:41;14.80;1.00
4324;DHT22;2175;51.018;6.994;2024-03-29T11:56:07;14.90;1.00
4324;DHT22;2175;51.018;6.994;2024-03-29T11:58:34;15.20;1.00
4324;DHT22;2175;51.018;6.994;2024-03-29T12:01:00;15.60;1.00
4324;DHT22;2175;51.018;6.994;2024-03-29T12:03:31;15.60;1.00
4324;DHT22;2175;51.018;6.994;2024-03-29T12:05:58;15.60;1.00
4324;DHT22;2175;51.018;6.994;2024-03-29T12:08:31;15.20;1.00
4324;DHT22;2175;51.018;6.994;2024-03-29T12:11:01;15.10;1.00
4324;DHT22;2175;51.018;6.994;2024-03-29T12:13:26;14.90;1.00
4324;DHT22;2175;51.018;6.994;2024-03-29T12:15:52;14.80;1.00
4324;DHT22;2175;51.018;6.994;2024-03-29T12:18:20;14.80;1.00
4324;DHT22;2175;51.018;6.994;2024-03-29T12:20:47;14.70;1.00
4324;DHT22;2175;51.018;6.994;2024-03-29T12:23:16;14.60;1.00
4324;DHT22;2175;51.018;6.994;2024-03-29T12:25:41;14.60;1.00
4324;DHT22;2175;51.018;6.994;2024-03-29T12:28:08;14.60;1.00
4324;DHT22;2175;51.018;6.994;2024-03-29T12:30:34;14.60;1.00
4324;DHT22;2175;51.018;6.994;2024-03-29T12:35:34;14.50;1.00
4324;DHT22;2175;51.018;6.994;2024-03-29T12:38:02;14.30;1.00
4324;DHT22;2175;51.018;6.994;2024-03-29T12:40:34;14.20;1.00
4324;DHT22;2175;51.018;6.994;2024-03-29T12:43:07;14.10;1.00
4324;DHT22;2175;51.018;6.994;2024-03-29T12:45:36;13.80;1.00
4324;DHT22;2175;51.018;6.994;2024-03-29T12:48:18;13.50;99.90
4324;DHT22;2175;51.018;6.994;2024-03-29T12:50:45;13.40;1.00
4324;DHT22;2175;51.018;6.994;2024-03-29T12:53:13;13.20;99.90
4324;DHT22;2175;51.018;6.994;2024-03-29T12:55:44;13.20;99.90
4324;DHT22;2175;51.018;6.994;2024-03-29T12:58:15;13.30;1.00
4324;DHT22;2175;51.018;6.994;2024-03-29T13:00:42;13.30;1.00
4324;DHT22;2175;51.018;6.994;2024-03-29T13:03:08;13.30;99.90
4324;DHT22;2175;51.018;6.994;2024-03-29T13:05:35;13.40;99.90
4324;DHT22;2175;51.018;6.994;2024-03-29T13:08:05;13.50;1.00
4324;DHT22;2175;51.018;6.994;2024-03-29T13:10:32;13.60;99.90
4324;DHT22;2175;51.018;6.994;2024-03-29T13:12:58;13.80;1.00
4324;DHT22;2175;51.018;6.994;2024-03-29T13:15:24;14.10;99.90
4324;DHT22;2175;51.018;6.994;2024-03-29T13:17:54;14.00;99.90
4324;DHT22;2175;51.018;6.994;2024-03-29T13:20:22;14.10;99.90
4324;DHT22;2175;51.018;6.994;2024-03-29T13:22:48;14.20;99.90
4324;DHT22;2175;51.018;6.994;2024-03-29T13:25:16;14.40;99.90
4324;DHT22;2175;51.018;6.994;2024-03-29T13:27:42;14.50;1.00
4324;DHT22;2175;51.018;6.994;2024-03-29T13:30:10;14.90;1.00
4324;DHT22;2175;51.018;6.994;2024-03-29T13:32:38;15.00;1.00
4324;DHT22;2175;51.018;6.994;2024-03-29T13:35:05;15.00;1.00
4324;DHT22;2175;51.018;6.994;2024-03-29T13:37:32;15.00;1.00
4324;DHT22;2175;51.018;6.994;2024-03-29T13:39:58;14.80;1.00
4324;DHT22;2175;51.018;6.994;2024-03-29T13:42:23;14.80;1.00
4324;DHT22;2175;51.018;6.994;2024-03-29T13:44:50;14.70;1.00
4324;DHT22;2175;51.018;6.994;2024-03-29T13:47:16;14.80;1.00
4324;DHT22;2175;51.018;6.994;2024-03-29T13:49:43;14.80;1.00
4324;DHT22;2175;51.018;6.994;2024-03-29T13:52:09;15.00;1.00
4324;DHT22;2175;51.018;6.994;2024-03-29T13:54:34;15.00;1.00
4324;DHT22;2175;51.018;6.994;2024-03-29T13:57:01;15.10;1.00
4324;DHT22;2175;51.018;6.994;2024-03-29T13:59:29;15.10;1.00
4324;DHT22;2175;51.018;6.994;2024-03-29T14:01:55;15.20;1.00
4324;DHT22;2175;51.018;6.994;2024-03-29T14:04:20;15.30;1.00
4324;DHT22;2175;51.018;6.994;2024-03-29T14:06:46;15.30;1.00
4324;DHT22;2175;51.018;6.994;2024-03-29T14:09:11;15.30;1.00
4324;DHT22;2175;51.018;6.994;2024-03-29T14:11:37;15.20;1.00
4324;DHT22;2175;51.018;6.994;2024-03-29T14:14:03;15.10;1.00
4324;DHT22;2175;51.018;6.994;2024-03-29T14:16:30;15.00;1.00
4324;DHT22;2175;51.018;6.994;2024-03-29T14:18:56;15.00;1.00
4324;DHT22;2175;51.018;6.994;2024-03-29T14:21:21;14.90;1.00
4324;DHT22;2175;51.018;6.994;2024-03-29T14:23:47;14.80;1.00
4324;DHT22;2175;51.018;6.994;2024-03-29T14:26:13;14.80;1.00
4324;DHT22;2175;51.018;6.994;2024-03-29T14:28:39;14.80;1.00
4324;DHT22;2175;51.018;6.994;2024-03-29T14:31:04;14.90;1.00
4324;DHT22;2175;51.018;6.994;2024-03-29T14:33:30;14.90;1.00
4324;DHT22;2175;51.018;6.994;2024-03-29T14:35:56;14.90;1.00
4324;DHT22;2175;51.018;6.994;2024-03-29T14:38:23;15.00;1.00
4324;DHT22;2175;51.018;6.994;2024-03-29T14:40:49;15.00;1.00
4324;DHT22;2175;51.018;6.994;2024-03-29T14:43:14;15.10;1.00
4324;DHT22;2175;51.018;6.994;2024-03-29T14:45:41;15.10;1.00
4324;DHT22;2175;51.018;6.994;2024-03-29T14:48:07;15.20;1.00
4324;DHT22;2175;51.018;6.994;2024-03-29T14:50:33;15.00;1.00
4324;DHT22;2175;51.018;6.994;2024-03-29T14:52:58;15.00;1.00
4324;DHT22;2175;51.018;6.994;2024-03-29T14:55:24;15.00;1.00
4324;DHT22;2175;51.018;6.994;2024-03-29T14:57:51;15.00;1.00
4324;DHT22;2175;51.018;6.994;2024-03-29T15:00:18;14.90;1.00
4324;DHT22;2175;51.018;6.994;2024-03-29T15:02:44;15.10;1.00
4324;DHT22;2175;51.018;6.994;2024-03-29T15:05:11;15.20;1.00
4324;DHT22;2175;51.018;6.994;2024-03-29T15:07:37;15.30;1.00
4324;DHT22;2175;51.018;6.994;2024-03-29T15:10:03;15.40;1.00
4324;DHT22;2175;51.018;6.994;2024-03-29T15:12:36;15.30;1.00
4324;DHT22;2175;51.018;6.994;2024-03-29T15:15:02;15.20;1.00
4324;DHT22;2175;51.018;6.994;2024-03-29T15:17:27;15.10;1.00
4324;DHT22;2175;51.018;6.994;2024-03-29T15:19:53;15.20;1.00
4324;DHT22;2175;51.018;6.994;2024-03-29T15:22:19;15.20;1.00
4324;DHT22;2175;51.018;6.994;2024-03-29T15:24:44;15.10;1.00
4324;DHT22;2175;51.018;6.994;2024-03-29T15:27:10;15.00;1.00
4324;DHT22;2175;51.018;6.994;2024-03-29T15:29:54;15.00;1.00
4324;DHT22;2175;51.018;6.994;2024-03-29T15:32:21;14.90;1.00
4324;DHT22;2175;51.018;6.994;2024-03-29T15:34:47;14.90;1.00
4324;DHT22;2175;51.018;6.994;2024-03-29T15:37:13;14.90;1.00
4324;DHT22;2175;51.018;6.994;2024-03-29T15:39:38;14.80;1.00
4324;DHT22;2175;51.018;6.994;2024-03-29T15:42:04;14.80;1.00
4324;DHT22;2175;51.018;6.994;2024-03-29T15:44:30;14.80;1.00
4324;DHT22;2175;51.018;6.994;2024-03-29T15:46:55;14.70;1.00
4324;DHT22;2175;51.018;6.994;2024-03-29T15:49:21;14.60;1.00
4324;DHT22;2175;51.018;6.994;2024-03-29T15:51:47;14.50;1.00
4324;DHT22;2175;51.018;6.994;2024-03-29T15:54:12;14.50;1.00
4324;DHT22;2175;51.018;6.994;2024-03-29T15:56:42;14.50;1.00
4324;DHT22;2175;51.018;6.994;2024-03-29T15:59:07;14.40;1.00
4324;DHT22;2175;51.018;6.994;2024-03-29T16:01:35;14.40;1.00
4324;DHT22;2175;51.018;6.994;2024-03-29T16:04:00;14.30;1.00
4324;DHT22;2175;51.018;6.994;2024-03-29T16:06:26;14.40;1.00
4324;DHT22;2175;51.018;6.994;2024-03-29T16:08:52;14.30;1.00
4324;DHT22;2175;51.018;6.994;2024-03-29T16:11:17;14.30;1.00
4324;DHT22;2175;51.018;6.994;2024-03-29T16:13:43;14.20;1.00
4324;DHT22;2175;51.018;6.994;2024-03-29T16:16:10;14.20;1.00
4324;DHT22;2175;51.018;6.994;2024-03-29T16:18:35;14.20;1.00
4324;DHT22;2175;51.018;6.994;2024-03-29T16:21:01;14.20;1.00
4324;DHT22;2175;51.018;6.994;2024-03-29T16:23:27;14.10;1.00
4324;DHT22;2175;51.018;6.994;2024-03-29T16:25:53;14.10;1.00
4324;DHT22;2175;51.018;6.994;2024-03-29T16:28:22;14.00;1.00